sensor_id;sensor_type;location;lat;lon;timestamp;P1;durP1;ratioP1;P2;durP2;ratioP2
46080;SDS011;31821;51.880;-0.518;2022-12-01T00:01:06;22.13;;;12.20;;
46080;SDS011;31821;51.880;-0.518;2022-12-01T00:03:32;21.88;;;11.45;;
46080;SDS011;31821;51.880;-0.518;2022-12-01T00:06:01;17.95;;;10.55;;
46080;SDS011;31821;51.880;-0.518;2022-12-01T00:08:28;24.77;;;13.18;;
46080;SDS011;31821;51.880;-0.518;2022-12-01T00:10:54;21.88;;;13.10;;
46080;SDS011;31821;51.880;-0.518;2022-12-01T00:13:20;25.67;;;13.68;;
46080;SDS011;31821;51.880;-0.518;2022-12-01T00:15:45;27.23;;;14.32;;
46080;SDS011;31821;51.880;-0.518;2022-12-01T00:18:11;23.67;;;13.65;;
46080;SDS011;31821;51.880;-0.518;2022-12-01T00:20:36;29.30;;;15.73;;
46080;SDS011;31821;51.880;-0.518;2022-12-01T00:23:02;24.52;;;14.95;;
46080;SDS011;31821;51.880;-0.518;2022-12-01T00:25:27;28.38;;;16.13;;
46080;SDS011;31821;51.880;-0.518;2022-12-01T00:27:53;28.30;;;16.02;;
46080;SDS011;31821;51.880;-0.518;2022-12-01T00:30:19;36.00;;;18.67;;
46080;SDS011;31821;51.880;-0.518;2022-12-01T00:32:46;30.15;;;16.15;;
46080;SDS011;31821;51.880;-0.518;2022-12-01T00:35:12;28.40;;;14.32;;
46080;SDS011;31821;51.880;-0.518;2022-12-01T00:37:39;29.05;;;14.98;;
46080;SDS011;31821;51.880;-0.518;2022-12-01T00:40:05;24.45;;;14.65;;
46080;SDS011;31821;51.880;-0.518;2022-12-01T00:42:31;31.42;;;16.05;;
46080;SDS011;31821;51.880;-0.518;2022-12-01T00:44:57;26.60;;;14.30;;
46080;SDS011;31821;51.880;-0.518;2022-12-01T00:47:22;26.67;;;14.93;;
46080;SDS011;31821;51.880;-0.518;2022-12-01T00:49:48;28.45;;;14.80;;
46080;SDS011;31821;51.880;-0.518;2022-12-01T00:52:17;33.42;;;16.83;;
46080;SDS011;31821;51.880;-0.518;2022-12-01T00:54:43;30.92;;;16.63;;
46080;SDS011;31821;51.880;-0.518;2022-12-01T00:57:08;28.33;;;17.08;;
46080;SDS011;31821;51.880;-0.518;2022-12-01T00:59:34;26.27;;;14.68;;
46080;SDS011;31821;51.880;-0.518;2022-12-01T01:02:00;26.00;;;14.18;;
46080;SDS011;31821;51.880;-0.518;2022-12-01T01:04:29;27.83;;;15.05;;
46080;SDS011;31821;51.880;-0.518;2022-12-01T01:06:56;23.90;;;13.23;;
46080;SDS011;31821;51.880;-0.518;2022-12-01T01:09:21;28.10;;;14.27;;
46080;SDS011;31821;51.880;-0.518;2022-12-01T01:11:47;23.17;;;12.50;;
46080;SDS011;31821;51.880;-0.518;2022-12-01T01:14:12;22.70;;;12.13;;
46080;SDS011;31821;51.880;-0.518;2022-12-01T01:16:38;22.02;;;13.18;;
46080;SDS011;31821;51.880;-0.518;2022-12-01T01:19:03;23.38;;;13.10;;
46080;SDS011;31821;51.880;-0.518;2022-12-01T01:21:29;23.75;;;13.40;;
46080;SDS011;31821;51.880;-0.518;2022-12-01T01:23:54;20.40;;;11.68;;
46080;SDS011;31821;51.880;-0.518;2022-12-01T01:26:24;23.02;;;13.27;;
46080;SDS011;31821;51.880;-0.518;2022-12-01T01:28:51;22.88;;;12.70;;
46080;SDS011;31821;51.880;-0.518;2022-12-01T01:31:21;27.92;;;15.48;;
46080;SDS011;31821;51.880;-0.518;2022-12-01T01:33:49;24.80;;;13.73;;
46080;SDS011;31821;51.880;-0.518;2022-12-01T01:36:16;31.08;;;16.15;;
46080;SDS011;31821;51.880;-0.518;2022-12-01T01:38:43;27.52;;;14.35;;
46080;SDS011;31821;51.880;-0.518;2022-12-01T01:41:09;26.85;;;14.45;;
46080;SDS011;31821;51.880;-0.518;2022-12-01T01:43:45;28.02;;;15.23;;
46080;SDS011;31821;51.880;-0.518;2022-12-01T01:46:25;31.05;;;15.60;;
46080;SDS011;31821;51.880;-0.518;2022-12-01T01:49:02;28.10;;;14.35;;
46080;SDS011;31821;51.880;-0.518;2022-12-01T01:54:19;25.63;;;14.13;;
46080;SDS011;31821;51.880;-0.518;2022-12-01T01:56:49;24.77;;;14.02;;
46080;SDS011;31821;51.880;-0.518;2022-12-01T01:59:18;25.55;;;14.73;;
46080;SDS011;31821;51.880;-0.518;2022-12-01T02:01:47;22.15;;;12.32;;
46080;SDS011;31821;51.880;-0.518;2022-12-01T02:06:44;21.70;;;12.02;;
46080;SDS011;31821;51.880;-0.518;2022-12-01T02:09:10;22.20;;;11.80;;
46080;SDS011;31821;51.880;-0.518;2022-12-01T02:14:38;23.75;;;13.50;;
46080;SDS011;31821;51.880;-0.518;2022-12-01T02:25:20;26.55;;;15.38;;
46080;SDS011;31821;51.880;-0.518;2022-12-01T02:30:46;26.48;;;15.23;;
46080;SDS011;31821;51.880;-0.518;2022-12-01T02:38:28;21.42;;;12.55;;
46080;SDS011;31821;51.880;-0.518;2022-12-01T02:40:56;21.80;;;12.60;;
46080;SDS011;31821;51.880;-0.518;2022-12-01T02:46:21;24.45;;;13.90;;
46080;SDS011;31821;51.880;-0.518;2022-12-01T02:53:49;22.58;;;12.07;;
46080;SDS011;31821;51.880;-0.518;2022-12-01T02:56:18;25.02;;;13.18;;
46080;SDS011;31821;51.880;-0.518;2022-12-01T02:58:45;22.42;;;11.95;;
46080;SDS011;31821;51.880;-0.518;2022-12-01T03:04:01;22.08;;;11.77;;
46080;SDS011;31821;51.880;-0.518;2022-12-01T03:09:45;23.10;;;12.27;;
46080;SDS011;31821;51.880;-0.518;2022-12-01T03:12:34;24.23;;;13.07;;
46080;SDS011;31821;51.880;-0.518;2022-12-01T03:20:41;38.60;;;15.00;;
46080;SDS011;31821;51.880;-0.518;2022-12-01T03:23:13;36.95;;;14.27;;
46080;SDS011;31821;51.880;-0.518;2022-12-01T03:25:43;40.97;;;16.48;;
46080;SDS011;31821;51.880;-0.518;2022-12-01T03:28:13;39.83;;;15.27;;
46080;SDS011;31821;51.880;-0.518;2022-12-01T03:30:41;43.50;;;16.17;;
46080;SDS011;31821;51.880;-0.518;2022-12-01T03:33:10;48.38;;;17.00;;
46080;SDS011;31821;51.880;-0.518;2022-12-01T03:38:26;46.45;;;17.45;;
46080;SDS011;31821;51.880;-0.518;2022-12-01T03:40:58;55.30;;;18.10;;
46080;SDS011;31821;51.880;-0.518;2022-12-01T03:43:30;53.65;;;17.95;;
46080;SDS011;31821;51.880;-0.518;2022-12-01T03:46:09;43.00;;;16.30;;
46080;SDS011;31821;51.880;-0.518;2022-12-01T03:48:39;54.22;;;19.95;;
46080;SDS011;31821;51.880;-0.518;2022-12-01T03:51:16;40.42;;;16.45;;
46080;SDS011;31821;51.880;-0.518;2022-12-01T03:57:05;54.53;;;17.35;;
46080;SDS011;31821;51.880;-0.518;2022-12-01T03:59:35;48.28;;;16.08;;
46080;SDS011;31821;51.880;-0.518;2022-12-01T04:02:04;52.70;;;17.52;;
46080;SDS011;31821;51.880;-0.518;2022-12-01T04:04:31;54.17;;;17.27;;
46080;SDS011;31821;51.880;-0.518;2022-12-01T04:06:56;51.10;;;16.60;;
46080;SDS011;31821;51.880;-0.518;2022-12-01T04:09:22;54.22;;;17.75;;
46080;SDS011;31821;51.880;-0.518;2022-12-01T04:11:47;48.50;;;16.98;;
46080;SDS011;31821;51.880;-0.518;2022-12-01T04:14:31;51.85;;;17.70;;
46080;SDS011;31821;51.880;-0.518;2022-12-01T04:16:57;56.10;;;18.35;;
46080;SDS011;31821;51.880;-0.518;2022-12-01T04:19:22;57.17;;;18.13;;
46080;SDS011;31821;51.880;-0.518;2022-12-01T04:21:48;69.20;;;18.88;;
46080;SDS011;31821;51.880;-0.518;2022-12-01T04:24:13;59.75;;;20.38;;
46080;SDS011;31821;51.880;-0.518;2022-12-01T04:26:39;49.35;;;17.23;;
46080;SDS011;31821;51.880;-0.518;2022-12-01T04:29:06;50.28;;;18.15;;
46080;SDS011;31821;51.880;-0.518;2022-12-01T04:31:33;46.92;;;16.95;;
46080;SDS011;31821;51.880;-0.518;2022-12-01T04:33:59;45.30;;;16.20;;
46080;SDS011;31821;51.880;-0.518;2022-12-01T04:36:26;60.67;;;20.77;;
46080;SDS011;31821;51.880;-0.518;2022-12-01T04:38:54;58.05;;;19.52;;
46080;SDS011;31821;51.880;-0.518;2022-12-01T04:41:20;54.15;;;19.45;;
46080;SDS011;31821;51.880;-0.518;2022-12-01T04:43:45;45.13;;;16.38;;
46080;SDS011;31821;51.880;-0.518;2022-12-01T04:46:10;53.97;;;20.02;;
46080;SDS011;31821;51.880;-0.518;2022-12-01T04:48:37;42.75;;;16.13;;
46080;SDS011;31821;51.880;-0.518;2022-12-01T04:51:03;48.15;;;17.50;;
46080;SDS011;31821;51.880;-0.518;2022-12-01T04:53:30;45.35;;;16.88;;
46080;SDS011;31821;51.880;-0.518;2022-12-01T04:55:58;42.50;;;15.43;;
46080;SDS011;31821;51.880;-0.518;2022-12-01T04:58:24;33.22;;;14.02;;
46080;SDS011;31821;51.880;-0.518;2022-12-01T05:00:50;45.45;;;15.95;;
46080;SDS011;31821;51.880;-0.518;2022-12-01T05:03:15;46.80;;;16.50;;
46080;SDS011;31821;51.880;-0.518;2022-12-01T05:05:41;50.90;;;17.35;;
46080;SDS011;31821;51.880;-0.518;2022-12-01T05:08:06;53.53;;;18.83;;
46080;SDS011;31821;51.880;-0.518;2022-12-01T05:10:35;63.40;;;18.77;;
46080;SDS011;31821;51.880;-0.518;2022-12-01T05:13:02;50.03;;;17.10;;
46080;SDS011;31821;51.880;-0.518;2022-12-01T05:15:28;47.65;;;17.42;;
46080;SDS011;31821;51.880;-0.518;2022-12-01T05:17:54;48.40;;;17.25;;
46080;SDS011;31821;51.880;-0.518;2022-12-01T05:20:20;35.45;;;14.77;;
46080;SDS011;31821;51.880;-0.518;2022-12-01T05:23:06;44.25;;;17.15;;
46080;SDS011;31821;51.880;-0.518;2022-12-01T05:25:31;44.42;;;16.45;;
46080;SDS011;31821;51.880;-0.518;2022-12-01T05:27:57;45.13;;;16.50;;
46080;SDS011;31821;51.880;-0.518;2022-12-01T05:30:23;43.30;;;17.10;;
46080;SDS011;31821;51.880;-0.518;2022-12-01T05:32:49;49.97;;;18.67;;
46080;SDS011;31821;51.880;-0.518;2022-12-01T05:35:14;43.95;;;16.55;;
46080;SDS011;31821;51.880;-0.518;2022-12-01T05:37:40;42.33;;;16.73;;
46080;SDS011;31821;51.880;-0.518;2022-12-01T05:40:06;36.80;;;15.68;;
46080;SDS011;31821;51.880;-0.518;2022-12-01T05:42:32;39.03;;;15.65;;
46080;SDS011;31821;51.880;-0.518;2022-12-01T05:44:57;39.35;;;16.80;;
46080;SDS011;31821;51.880;-0.518;2022-12-01T05:47:23;36.45;;;16.67;;
46080;SDS011;31821;51.880;-0.518;2022-12-01T05:49:48;41.55;;;17.42;;
46080;SDS011;31821;51.880;-0.518;2022-12-01T05:52:14;37.97;;;16.85;;
46080;SDS011;31821;51.880;-0.518;2022-12-01T05:54:39;39.42;;;17.42;;
46080;SDS011;31821;51.880;-0.518;2022-12-01T05:57:05;30.90;;;14.23;;
46080;SDS011;31821;51.880;-0.518;2022-12-01T05:59:31;40.75;;;17.38;;
46080;SDS011;31821;51.880;-0.518;2022-12-01T06:01:56;37.08;;;15.55;;
46080;SDS011;31821;51.880;-0.518;2022-12-01T06:04:22;34.42;;;16.27;;
46080;SDS011;31821;51.880;-0.518;2022-12-01T06:06:48;33.78;;;14.73;;
46080;SDS011;31821;51.880;-0.518;2022-12-01T06:09:14;29.83;;;13.05;;
46080;SDS011;31821;51.880;-0.518;2022-12-01T06:11:40;32.58;;;15.20;;
46080;SDS011;31821;51.880;-0.518;2022-12-01T06:14:05;32.45;;;15.10;;
46080;SDS011;31821;51.880;-0.518;2022-12-01T06:16:31;30.75;;;14.93;;
46080;SDS011;31821;51.880;-0.518;2022-12-01T06:18:56;31.90;;;14.70;;
46080;SDS011;31821;51.880;-0.518;2022-12-01T06:21:22;27.52;;;14.88;;
46080;SDS011;31821;51.880;-0.518;2022-12-01T06:23:49;29.85;;;15.40;;
46080;SDS011;31821;51.880;-0.518;2022-12-01T06:26:14;30.35;;;15.50;;
46080;SDS011;31821;51.880;-0.518;2022-12-01T06:28:40;32.80;;;16.35;;
46080;SDS011;31821;51.880;-0.518;2022-12-01T06:31:05;33.75;;;16.33;;
46080;SDS011;31821;51.880;-0.518;2022-12-01T06:33:31;30.27;;;16.40;;
46080;SDS011;31821;51.880;-0.518;2022-12-01T06:36:03;21.17;;;11.38;;
46080;SDS011;31821;51.880;-0.518;2022-12-01T06:38:34;21.90;;;12.20;;
46080;SDS011;31821;51.880;-0.518;2022-12-01T06:41:01;25.73;;;13.82;;
46080;SDS011;31821;51.880;-0.518;2022-12-01T06:43:27;25.23;;;13.07;;
46080;SDS011;31821;51.880;-0.518;2022-12-01T06:45:52;25.60;;;13.93;;
46080;SDS011;31821;51.880;-0.518;2022-12-01T06:48:18;27.08;;;13.02;;
46080;SDS011;31821;51.880;-0.518;2022-12-01T06:50:43;26.00;;;13.73;;
46080;SDS011;31821;51.880;-0.518;2022-12-01T06:53:09;29.67;;;15.38;;
46080;SDS011;31821;51.880;-0.518;2022-12-01T06:55:35;27.17;;;14.63;;
46080;SDS011;31821;51.880;-0.518;2022-12-01T06:58:01;33.38;;;15.80;;
46080;SDS011;31821;51.880;-0.518;2022-12-01T07:00:27;26.27;;;14.38;;
46080;SDS011;31821;51.880;-0.518;2022-12-01T07:02:54;29.17;;;15.23;;
46080;SDS011;31821;51.880;-0.518;2022-12-01T07:05:19;31.17;;;16.25;;
46080;SDS011;31821;51.880;-0.518;2022-12-01T07:07:45;29.15;;;15.27;;
46080;SDS011;31821;51.880;-0.518;2022-12-01T07:10:11;31.42;;;15.98;;
46080;SDS011;31821;51.880;-0.518;2022-12-01T07:12:38;30.40;;;15.63;;
46080;SDS011;31821;51.880;-0.518;2022-12-01T07:15:04;27.30;;;16.00;;
46080;SDS011;31821;51.880;-0.518;2022-12-01T07:17:32;36.13;;;18.05;;
46080;SDS011;31821;51.880;-0.518;2022-12-01T07:19:58;39.92;;;18.75;;
46080;SDS011;31821;51.880;-0.518;2022-12-01T07:22:24;34.65;;;18.58;;
46080;SDS011;31821;51.880;-0.518;2022-12-01T07:24:49;37.83;;;18.25;;
46080;SDS011;31821;51.880;-0.518;2022-12-01T07:27:15;27.90;;;15.77;;
46080;SDS011;31821;51.880;-0.518;2022-12-01T07:29:41;32.47;;;16.88;;
46080;SDS011;31821;51.880;-0.518;2022-12-01T07:32:06;41.58;;;20.15;;
46080;SDS011;31821;51.880;-0.518;2022-12-01T07:34:32;33.60;;;17.55;;
46080;SDS011;31821;51.880;-0.518;2022-12-01T07:36:57;36.90;;;18.55;;
46080;SDS011;31821;51.880;-0.518;2022-12-01T07:39:22;39.47;;;18.75;;
46080;SDS011;31821;51.880;-0.518;2022-12-01T07:41:48;31.08;;;16.38;;
46080;SDS011;31821;51.880;-0.518;2022-12-01T07:44:13;28.55;;;15.10;;
46080;SDS011;31821;51.880;-0.518;2022-12-01T07:46:39;34.35;;;17.02;;
46080;SDS011;31821;51.880;-0.518;2022-12-01T07:49:05;37.97;;;19.17;;
46080;SDS011;31821;51.880;-0.518;2022-12-01T07:51:32;38.10;;;17.60;;
46080;SDS011;31821;51.880;-0.518;2022-12-01T07:54:00;36.67;;;16.98;;
46080;SDS011;31821;51.880;-0.518;2022-12-01T07:56:28;33.70;;;17.58;;
46080;SDS011;31821;51.880;-0.518;2022-12-01T07:58:53;29.52;;;15.27;;
46080;SDS011;31821;51.880;-0.518;2022-12-01T08:01:20;30.35;;;16.20;;
46080;SDS011;31821;51.880;-0.518;2022-12-01T08:03:47;37.38;;;18.55;;
46080;SDS011;31821;51.880;-0.518;2022-12-01T08:06:15;35.85;;;18.02;;
46080;SDS011;31821;51.880;-0.518;2022-12-01T08:08:41;37.47;;;19.00;;
46080;SDS011;31821;51.880;-0.518;2022-12-01T08:11:09;40.60;;;20.23;;
46080;SDS011;31821;51.880;-0.518;2022-12-01T08:13:37;44.05;;;21.70;;
46080;SDS011;31821;51.880;-0.518;2022-12-01T08:16:03;47.30;;;21.85;;
46080;SDS011;31821;51.880;-0.518;2022-12-01T08:18:30;43.22;;;19.73;;
46080;SDS011;31821;51.880;-0.518;2022-12-01T08:20:57;52.85;;;21.65;;
46080;SDS011;31821;51.880;-0.518;2022-12-01T08:23:23;57.92;;;23.80;;
46080;SDS011;31821;51.880;-0.518;2022-12-01T08:25:49;54.17;;;22.80;;
46080;SDS011;31821;51.880;-0.518;2022-12-01T08:28:16;67.72;;;23.05;;
46080;SDS011;31821;51.880;-0.518;2022-12-01T08:30:42;83.43;;;26.73;;
46080;SDS011;31821;51.880;-0.518;2022-12-01T08:33:07;108.50;;;24.17;;
46080;SDS011;31821;51.880;-0.518;2022-12-01T08:35:34;104.72;;;23.67;;
46080;SDS011;31821;51.880;-0.518;2022-12-01T08:38:00;81.03;;;23.77;;
46080;SDS011;31821;51.880;-0.518;2022-12-01T08:40:26;80.43;;;27.83;;
46080;SDS011;31821;51.880;-0.518;2022-12-01T08:42:51;75.72;;;23.63;;
46080;SDS011;31821;51.880;-0.518;2022-12-01T08:45:17;104.30;;;26.30;;
46080;SDS011;31821;51.880;-0.518;2022-12-01T08:47:43;74.80;;;20.85;;
46080;SDS011;31821;51.880;-0.518;2022-12-01T08:50:09;90.10;;;21.35;;
46080;SDS011;31821;51.880;-0.518;2022-12-01T08:52:35;87.60;;;19.60;;
46080;SDS011;31821;51.880;-0.518;2022-12-01T08:55:01;50.20;;;17.40;;
46080;SDS011;31821;51.880;-0.518;2022-12-01T08:57:28;93.25;;;19.73;;
46080;SDS011;31821;51.880;-0.518;2022-12-01T08:59:54;93.30;;;18.50;;
46080;SDS011;31821;51.880;-0.518;2022-12-01T09:02:19;77.00;;;18.73;;
46080;SDS011;31821;51.880;-0.518;2022-12-01T09:04:48;85.05;;;19.83;;
46080;SDS011;31821;51.880;-0.518;2022-12-01T09:07:14;67.63;;;19.65;;
46080;SDS011;31821;51.880;-0.518;2022-12-01T09:09:41;68.95;;;18.75;;
46080;SDS011;31821;51.880;-0.518;2022-12-01T09:12:08;93.18;;;18.77;;
46080;SDS011;31821;51.880;-0.518;2022-12-01T09:14:37;72.85;;;16.52;;
46080;SDS011;31821;51.880;-0.518;2022-12-01T09:17:03;42.30;;;14.40;;
46080;SDS011;31821;51.880;-0.518;2022-12-01T09:19:29;85.63;;;17.40;;
46080;SDS011;31821;51.880;-0.518;2022-12-01T09:21:55;70.82;;;17.13;;
46080;SDS011;31821;51.880;-0.518;2022-12-01T09:24:21;80.25;;;17.23;;
46080;SDS011;31821;51.880;-0.518;2022-12-01T09:26:46;81.72;;;17.52;;
46080;SDS011;31821;51.880;-0.518;2022-12-01T09:29:13;75.93;;;18.33;;
46080;SDS011;31821;51.880;-0.518;2022-12-01T09:31:39;109.60;;;19.50;;
46080;SDS011;31821;51.880;-0.518;2022-12-01T09:34:06;62.42;;;16.15;;
46080;SDS011;31821;51.880;-0.518;2022-12-01T09:36:36;88.95;;;18.17;;
46080;SDS011;31821;51.880;-0.518;2022-12-01T09:39:02;58.78;;;16.23;;
46080;SDS011;31821;51.880;-0.518;2022-12-01T09:46:40;43.78;;;16.50;;
46080;SDS011;31821;51.880;-0.518;2022-12-01T09:49:21;58.47;;;16.77;;
46080;SDS011;31821;51.880;-0.518;2022-12-01T09:51:50;59.88;;;16.35;;
46080;SDS011;31821;51.880;-0.518;2022-12-01T09:54:17;55.35;;;16.63;;
46080;SDS011;31821;51.880;-0.518;2022-12-01T09:56:49;46.58;;;17.27;;
46080;SDS011;31821;51.880;-0.518;2022-12-01T09:59:24;73.75;;;18.40;;
46080;SDS011;31821;51.880;-0.518;2022-12-01T10:02:00;52.55;;;17.83;;
46080;SDS011;31821;51.880;-0.518;2022-12-01T10:09:51;44.50;;;17.17;;
46080;SDS011;31821;51.880;-0.518;2022-12-01T10:12:21;43.40;;;15.95;;
46080;SDS011;31821;51.880;-0.518;2022-12-01T10:14:52;40.55;;;15.52;;
46080;SDS011;31821;51.880;-0.518;2022-12-01T10:20:27;38.92;;;16.20;;
46080;SDS011;31821;51.880;-0.518;2022-12-01T10:25:57;41.45;;;15.20;;
46080;SDS011;31821;51.880;-0.518;2022-12-01T10:31:18;29.98;;;12.82;;
46080;SDS011;31821;51.880;-0.518;2022-12-01T10:34:09;30.55;;;11.57;;
46080;SDS011;31821;51.880;-0.518;2022-12-01T10:36:40;29.30;;;11.50;;
46080;SDS011;31821;51.880;-0.518;2022-12-01T10:39:05;31.33;;;11.25;;
46080;SDS011;31821;51.880;-0.518;2022-12-01T10:41:38;24.65;;;11.55;;
46080;SDS011;31821;51.880;-0.518;2022-12-01T10:44:04;28.05;;;11.10;;
46080;SDS011;31821;51.880;-0.518;2022-12-01T10:46:39;32.05;;;12.32;;
46080;SDS011;31821;51.880;-0.518;2022-12-01T10:49:13;26.40;;;11.50;;
46080;SDS011;31821;51.880;-0.518;2022-12-01T10:51:55;27.05;;;12.10;;
46080;SDS011;31821;51.880;-0.518;2022-12-01T10:54:23;34.45;;;13.07;;
46080;SDS011;31821;51.880;-0.518;2022-12-01T10:56:56;30.27;;;12.50;;
46080;SDS011;31821;51.880;-0.518;2022-12-01T11:02:03;27.98;;;9.82;;
46080;SDS011;31821;51.880;-0.518;2022-12-01T11:04:41;38.47;;;10.18;;
46080;SDS011;31821;51.880;-0.518;2022-12-01T11:07:15;30.48;;;10.35;;
46080;SDS011;31821;51.880;-0.518;2022-12-01T11:09:44;35.22;;;11.77;;
46080;SDS011;31821;51.880;-0.518;2022-12-01T11:12:12;37.38;;;11.20;;
46080;SDS011;31821;51.880;-0.518;2022-12-01T11:14:48;47.35;;;12.80;;
46080;SDS011;31821;51.880;-0.518;2022-12-01T11:22:52;35.47;;;13.30;;
46080;SDS011;31821;51.880;-0.518;2022-12-01T11:25:38;26.92;;;11.93;;
46080;SDS011;31821;51.880;-0.518;2022-12-01T11:28:03;41.47;;;14.88;;
46080;SDS011;31821;51.880;-0.518;2022-12-01T11:30:29;45.80;;;13.15;;
46080;SDS011;31821;51.880;-0.518;2022-12-01T11:33:02;30.90;;;12.95;;
46080;SDS011;31821;51.880;-0.518;2022-12-01T11:35:29;37.38;;;13.75;;
46080;SDS011;31821;51.880;-0.518;2022-12-01T11:37:57;32.40;;;12.50;;
46080;SDS011;31821;51.880;-0.518;2022-12-01T11:43:01;28.90;;;12.52;;
46080;SDS011;31821;51.880;-0.518;2022-12-01T11:45:30;31.42;;;13.60;;
46080;SDS011;31821;51.880;-0.518;2022-12-01T11:50:59;38.35;;;17.25;;
46080;SDS011;31821;51.880;-0.518;2022-12-01T11:55:55;34.55;;;15.05;;
46080;SDS011;31821;51.880;-0.518;2022-12-01T11:59:02;34.03;;;14.32;;
46080;SDS011;31821;51.880;-0.518;2022-12-01T12:04:30;31.88;;;15.82;;
46080;SDS011;31821;51.880;-0.518;2022-12-01T12:14:37;35.47;;;16.88;;
46080;SDS011;31821;51.880;-0.518;2022-12-01T12:22:32;29.90;;;14.93;;
46080;SDS011;31821;51.880;-0.518;2022-12-01T12:28:41;34.45;;;16.33;;
46080;SDS011;31821;51.880;-0.518;2022-12-01T12:41:59;38.88;;;16.90;;
46080;SDS011;31821;51.880;-0.518;2022-12-01T12:52:06;31.95;;;14.82;;
46080;SDS011;31821;51.880;-0.518;2022-12-01T12:57:51;32.55;;;15.85;;
46080;SDS011;31821;51.880;-0.518;2022-12-01T13:00:23;32.50;;;16.45;;
46080;SDS011;31821;51.880;-0.518;2022-12-01T13:02:52;33.70;;;16.92;;
46080;SDS011;31821;51.880;-0.518;2022-12-01T13:05:37;30.70;;;15.23;;
46080;SDS011;31821;51.880;-0.518;2022-12-01T13:08:12;29.60;;;14.23;;
46080;SDS011;31821;51.880;-0.518;2022-12-01T13:11:12;25.90;;;13.55;;
46080;SDS011;31821;51.880;-0.518;2022-12-01T13:13:57;30.17;;;14.57;;
46080;SDS011;31821;51.880;-0.518;2022-12-01T13:16:42;27.08;;;13.10;;
46080;SDS011;31821;51.880;-0.518;2022-12-01T13:19:31;26.73;;;12.45;;
46080;SDS011;31821;51.880;-0.518;2022-12-01T13:22:00;26.90;;;14.20;;
46080;SDS011;31821;51.880;-0.518;2022-12-01T13:24:27;27.95;;;13.00;;
46080;SDS011;31821;51.880;-0.518;2022-12-01T13:26:59;30.65;;;15.20;;
46080;SDS011;31821;51.880;-0.518;2022-12-01T13:29:35;27.42;;;13.02;;
46080;SDS011;31821;51.880;-0.518;2022-12-01T13:32:04;28.10;;;14.07;;
46080;SDS011;31821;51.880;-0.518;2022-12-01T13:36:59;32.22;;;15.05;;
46080;SDS011;31821;51.880;-0.518;2022-12-01T13:39:25;29.58;;;14.63;;
46080;SDS011;31821;51.880;-0.518;2022-12-01T13:44:40;31.35;;;14.70;;
46080;SDS011;31821;51.880;-0.518;2022-12-01T13:49:46;33.78;;;14.73;;
46080;SDS011;31821;51.880;-0.518;2022-12-01T13:57:27;42.88;;;18.40;;
46080;SDS011;31821;51.880;-0.518;2022-12-01T14:02:23;35.90;;;15.70;;
46080;SDS011;31821;51.880;-0.518;2022-12-01T14:07:47;35.75;;;15.25;;
46080;SDS011;31821;51.880;-0.518;2022-12-01T14:12:57;34.42;;;15.35;;
46080;SDS011;31821;51.880;-0.518;2022-12-01T14:15:28;32.78;;;15.05;;
46080;SDS011;31821;51.880;-0.518;2022-12-01T14:18:01;35.05;;;15.88;;
46080;SDS011;31821;51.880;-0.518;2022-12-01T14:20:30;34.95;;;15.65;;
46080;SDS011;31821;51.880;-0.518;2022-12-01T14:23:15;31.98;;;14.32;;
46080;SDS011;31821;51.880;-0.518;2022-12-01T14:31:19;42.00;;;16.95;;
46080;SDS011;31821;51.880;-0.518;2022-12-01T14:34:01;32.88;;;13.93;;
46080;SDS011;31821;51.880;-0.518;2022-12-01T14:36:40;34.33;;;14.73;;
46080;SDS011;31821;51.880;-0.518;2022-12-01T14:39:12;40.40;;;15.32;;
46080;SDS011;31821;51.880;-0.518;2022-12-01T14:41:42;37.88;;;14.93;;
46080;SDS011;31821;51.880;-0.518;2022-12-01T14:49:30;35.33;;;14.20;;
46080;SDS011;31821;51.880;-0.518;2022-12-01T14:52:03;33.97;;;14.48;;
46080;SDS011;31821;51.880;-0.518;2022-12-01T14:54:38;33.75;;;13.95;;
46080;SDS011;31821;51.880;-0.518;2022-12-01T14:57:08;29.10;;;12.45;;
46080;SDS011;31821;51.880;-0.518;2022-12-01T14:59:36;30.30;;;14.35;;
46080;SDS011;31821;51.880;-0.518;2022-12-01T15:02:02;28.63;;;13.07;;
46080;SDS011;31821;51.880;-0.518;2022-12-01T15:07:38;39.60;;;13.68;;
46080;SDS011;31821;51.880;-0.518;2022-12-01T15:10:13;35.40;;;15.13;;
46080;SDS011;31821;51.880;-0.518;2022-12-01T15:12:41;33.88;;;14.90;;
46080;SDS011;31821;51.880;-0.518;2022-12-01T15:15:23;42.05;;;14.98;;
46080;SDS011;31821;51.880;-0.518;2022-12-01T15:17:50;41.65;;;15.63;;
46080;SDS011;31821;51.880;-0.518;2022-12-01T15:20:37;41.20;;;14.80;;
46080;SDS011;31821;51.880;-0.518;2022-12-01T15:23:14;32.30;;;13.98;;
46080;SDS011;31821;51.880;-0.518;2022-12-01T15:25:42;38.13;;;15.38;;
46080;SDS011;31821;51.880;-0.518;2022-12-01T15:28:16;43.17;;;14.93;;
46080;SDS011;31821;51.880;-0.518;2022-12-01T15:30:45;33.38;;;14.13;;
46080;SDS011;31821;51.880;-0.518;2022-12-01T15:33:20;28.70;;;12.82;;
46080;SDS011;31821;51.880;-0.518;2022-12-01T15:35:49;41.00;;;14.07;;
46080;SDS011;31821;51.880;-0.518;2022-12-01T15:38:20;66.13;;;17.38;;
46080;SDS011;31821;51.880;-0.518;2022-12-01T15:43:15;37.47;;;12.48;;
46080;SDS011;31821;51.880;-0.518;2022-12-01T15:45:45;32.80;;;13.75;;
46080;SDS011;31821;51.880;-0.518;2022-12-01T15:48:34;39.30;;;14.15;;
46080;SDS011;31821;51.880;-0.518;2022-12-01T15:51:09;44.78;;;13.65;;
46080;SDS011;31821;51.880;-0.518;2022-12-01T15:53:59;28.95;;;12.10;;
46080;SDS011;31821;51.880;-0.518;2022-12-01T15:56:26;34.38;;;12.02;;
46080;SDS011;31821;51.880;-0.518;2022-12-01T15:58:55;40.20;;;13.20;;
46080;SDS011;31821;51.880;-0.518;2022-12-01T16:01:30;34.13;;;12.55;;
46080;SDS011;31821;51.880;-0.518;2022-12-01T16:04:00;39.58;;;13.85;;
46080;SDS011;31821;51.880;-0.518;2022-12-01T16:06:35;40.13;;;13.43;;
46080;SDS011;31821;51.880;-0.518;2022-12-01T16:09:17;29.38;;;11.68;;
46080;SDS011;31821;51.880;-0.518;2022-12-01T16:12:03;47.10;;;10.93;;
46080;SDS011;31821;51.880;-0.518;2022-12-01T16:14:29;36.38;;;11.38;;
46080;SDS011;31821;51.880;-0.518;2022-12-01T16:16:56;44.63;;;12.70;;
46080;SDS011;31821;51.880;-0.518;2022-12-01T16:19:26;47.55;;;13.18;;
46080;SDS011;31821;51.880;-0.518;2022-12-01T16:24:45;42.80;;;13.23;;
46080;SDS011;31821;51.880;-0.518;2022-12-01T16:27:16;33.80;;;13.98;;
46080;SDS011;31821;51.880;-0.518;2022-12-01T16:32:40;34.30;;;11.30;;
46080;SDS011;31821;51.880;-0.518;2022-12-01T16:38:13;30.00;;;9.65;;
46080;SDS011;31821;51.880;-0.518;2022-12-01T16:40:45;27.20;;;9.15;;
46080;SDS011;31821;51.880;-0.518;2022-12-01T16:43:15;53.00;;;12.82;;
46080;SDS011;31821;51.880;-0.518;2022-12-01T16:45:46;52.83;;;12.48;;
46080;SDS011;31821;51.880;-0.518;2022-12-01T16:48:17;44.80;;;11.75;;
46080;SDS011;31821;51.880;-0.518;2022-12-01T16:50:47;34.88;;;10.07;;
46080;SDS011;31821;51.880;-0.518;2022-12-01T16:53:14;46.47;;;12.32;;
46080;SDS011;31821;51.880;-0.518;2022-12-01T16:58:12;51.17;;;11.55;;
46080;SDS011;31821;51.880;-0.518;2022-12-01T17:00:37;31.55;;;11.38;;
46080;SDS011;31821;51.880;-0.518;2022-12-01T17:03:03;23.33;;;9.25;;
46080;SDS011;31821;51.880;-0.518;2022-12-01T17:05:30;26.27;;;9.40;;
46080;SDS011;31821;51.880;-0.518;2022-12-01T17:07:55;25.73;;;9.77;;
46080;SDS011;31821;51.880;-0.518;2022-12-01T17:10:21;49.10;;;10.98;;
46080;SDS011;31821;51.880;-0.518;2022-12-01T17:12:48;37.45;;;10.27;;
46080;SDS011;31821;51.880;-0.518;2022-12-01T17:15:13;36.15;;;12.25;;